Cloverland, Indiana
Current Conditions -  °F | °C
As of 2:53 PM on Wednesday 26 Nov 2014 (Local Time) from KHUF Reporting Station
Clear Clear  
Wind Chill: 31°   Ceiling: Unl
Heat Index: 35°   Visibility: 10mi
Dew Point: 24°   Wind: 5mph
Humidity: 64%   Direction: 90°E
Pressure: 30.05"   Gusts: NA
Location:  39.5158°N, 87.1262°W
Report Text: KHUF 261953Z 09004KT 10SM CLR 02/M04 A3005 RMK AO2 SLP182 T00171044
Loading
Personal Weather Stations






























Interactive Weather Map New forecast layout! Learn more

10-Day Weather Forecast

Advertisements
Track Severe Weather on mobile